createdAt,value
2022-12-26T00:01:07.761Z,8.58
2022-12-26T00:03:34.847Z,8.44
2022-12-26T00:06:02.308Z,8.62
2022-12-26T00:08:29.386Z,8.37
2022-12-26T00:10:56.592Z,8.50
2022-12-26T00:13:39.998Z,8.51
2022-12-26T00:16:11.074Z,8.49
2022-12-26T00:18:39.811Z,8.45
2022-12-26T00:21:08.906Z,8.36
2022-12-26T00:23:36.878Z,8.42
2022-12-26T00:26:13.572Z,8.43
2022-12-26T00:28:41.804Z,8.45
2022-12-26T00:31:17.200Z,8.38
2022-12-26T00:33:44.354Z,8.32
2022-12-26T00:36:14.157Z,8.34
2022-12-26T00:38:42.764Z,8.27
2022-12-26T00:41:11.980Z,8.30
2022-12-26T00:43:39.166Z,8.50
2022-12-26T00:46:07.987Z,8.55
2022-12-26T00:48:35.278Z,8.63
2022-12-26T00:51:03.019Z,8.75
2022-12-26T00:53:30.408Z,8.55
2022-12-26T00:55:57.666Z,8.48
2022-12-26T00:58:25.389Z,8.55
2022-12-26T01:00:52.881Z,8.47
2022-12-26T01:03:20.157Z,8.59
2022-12-26T01:05:49.957Z,8.60
2022-12-26T01:08:19.816Z,8.57
2022-12-26T01:10:51.086Z,8.69
2022-12-26T01:13:18.253Z,8.47
2022-12-26T01:15:52.667Z,8.50
2022-12-26T01:18:20.591Z,8.43
2022-12-26T01:20:48.929Z,8.44
2022-12-26T01:23:17.093Z,8.42
2022-12-26T01:26:18.652Z,8.44
2022-12-26T01:28:31.744Z,8.47
2022-12-26T01:31:03.908Z,8.42
2022-12-26T01:33:31.824Z,8.47
2022-12-26T01:35:59.346Z,8.45
2022-12-26T01:38:26.527Z,8.44
2022-12-26T01:41:13.744Z,8.33
2022-12-26T01:43:59.104Z,8.40
2022-12-26T01:46:32.377Z,8.43
2022-12-26T01:49:07.259Z,8.28
2022-12-26T01:51:39.562Z,8.37
2022-12-26T01:54:40.606Z,8.48
2022-12-26T01:56:58.306Z,8.53
2022-12-26T01:59:28.566Z,8.50
2022-12-26T02:01:55.952Z,8.43
2022-12-26T02:04:47.483Z,8.38
2022-12-26T02:07:14.647Z,8.44
2022-12-26T02:09:42.833Z,8.63
2022-12-26T02:12:38.429Z,8.51
2022-12-26T02:15:17.098Z,8.52
2022-12-26T02:17:44.359Z,8.66
2022-12-26T02:20:22.506Z,8.78
2022-12-26T02:23:08.097Z,8.48
2022-12-26T02:26:10.947Z,8.53
2022-12-26T02:29:10.705Z,8.37
2022-12-26T02:32:11.414Z,8.23
2022-12-26T02:35:23.504Z,8.32
2022-12-26T02:38:16.686Z,8.33
2022-12-26T02:41:03.595Z,8.32
2022-12-26T02:44:35.259Z,8.31
2022-12-26T02:47:43.794Z,8.30
2022-12-26T02:50:35.383Z,8.23
2022-12-26T02:53:52.225Z,8.26
2022-12-26T02:56:45.144Z,8.27
2022-12-26T02:59:57.001Z,8.32
2022-12-26T03:02:53.444Z,8.12
2022-12-26T03:05:49.162Z,8.21
2022-12-26T03:08:43.103Z,8.10
2022-12-26T03:11:28.872Z,8.15
2022-12-26T03:14:08.198Z,8.08
2022-12-26T03:17:08.287Z,8.18
2022-12-26T03:19:58.095Z,8.13
2022-12-26T03:22:52.774Z,8.13
2022-12-26T03:25:54.115Z,8.14
2022-12-26T03:28:22.565Z,8.13
2022-12-26T03:30:49.907Z,8.17
2022-12-26T03:33:38.218Z,8.20
2022-12-26T03:36:07.297Z,8.13
2022-12-26T03:38:56.092Z,8.16
2022-12-26T03:41:55.623Z,8.16
2022-12-26T03:45:08.393Z,8.12
2022-12-26T03:48:11.849Z,8.20
2022-12-26T03:51:04.199Z,8.22
2022-12-26T03:53:56.781Z,8.21
2022-12-26T03:56:54.653Z,8.19
2022-12-26T03:59:49.279Z,8.23
2022-12-26T04:02:36.889Z,8.19
2022-12-26T04:05:23.821Z,8.21
2022-12-26T04:08:18.597Z,8.19
2022-12-26T04:11:16.454Z,8.08
2022-12-26T04:14:25.417Z,8.13
2022-12-26T04:17:19.381Z,8.13
2022-12-26T04:20:08.053Z,8.12
2022-12-26T04:23:07.579Z,8.13
2022-12-26T04:26:08.346Z,8.00
2022-12-26T04:28:54.352Z,8.02
2022-12-26T04:31:51.548Z,8.16
2022-12-26T04:35:14.298Z,8.06
2022-12-26T04:38:03.555Z,8.06
2022-12-26T04:40:53.046Z,8.10
2022-12-26T04:43:50.391Z,8.15
2022-12-26T04:46:21.058Z,8.17
2022-12-26T04:49:09.428Z,8.16
2022-12-26T04:51:36.861Z,8.07
2022-12-26T04:54:05.564Z,8.07
2022-12-26T04:56:32.966Z,7.95
2022-12-26T04:59:00.080Z,7.97
2022-12-26T05:01:46.170Z,7.89
2022-12-26T05:04:33.203Z,7.96
2022-12-26T05:07:20.492Z,7.98
2022-12-26T05:09:53.321Z,8.02
2022-12-26T05:12:20.981Z,8.05
2022-12-26T05:14:48.261Z,7.94
2022-12-26T05:17:34.058Z,8.01
2022-12-26T05:20:19.759Z,7.97
2022-12-26T05:23:06.045Z,7.83
2022-12-26T05:25:56.623Z,7.82
2022-12-26T05:28:42.517Z,7.80
2022-12-26T05:31:17.486Z,7.76
2022-12-26T05:34:03.605Z,7.82
2022-12-26T05:36:37.389Z,7.74
2022-12-26T05:39:04.883Z,7.82
2022-12-26T05:41:32.185Z,7.83
2022-12-26T05:43:59.397Z,7.74
2022-12-26T05:46:26.766Z,7.74
2022-12-26T05:48:53.967Z,7.80
2022-12-26T05:51:21.049Z,7.75
2022-12-26T05:53:48.643Z,7.68
2022-12-26T05:56:17.653Z,7.73
2022-12-26T05:58:45.643Z,7.73
2022-12-26T06:01:16.574Z,7.73
2022-12-26T06:03:47.649Z,7.58
2022-12-26T06:06:15.423Z,7.54
2022-12-26T06:08:43.162Z,7.59
2022-12-26T06:11:13.638Z,7.56
2022-12-26T06:13:42.026Z,7.49
2022-12-26T06:16:12.985Z,7.55
2022-12-26T06:18:40.874Z,7.55
2022-12-26T06:21:11.961Z,7.48
2022-12-26T06:23:39.483Z,7.53
2022-12-26T06:26:10.361Z,7.51
2022-12-26T06:28:40.187Z,7.56
2022-12-26T06:31:12.048Z,7.57
2022-12-26T06:33:39.099Z,7.56
2022-12-26T06:36:09.765Z,7.60
2022-12-26T06:38:38.173Z,7.58
2022-12-26T06:41:07.640Z,7.57
2022-12-26T06:43:35.015Z,7.46
2022-12-26T06:46:03.604Z,7.43
2022-12-26T06:48:31.524Z,7.51
2022-12-26T06:50:58.635Z,7.47
2022-12-26T06:53:25.782Z,7.49
2022-12-26T06:55:53.089Z,7.57
2022-12-26T06:58:20.108Z,7.53
2022-12-26T07:00:47.304Z,7.56
2022-12-26T07:03:14.468Z,7.54
2022-12-26T07:05:41.993Z,7.60
2022-12-26T07:08:09.144Z,7.60
2022-12-26T07:10:37.549Z,7.63
2022-12-26T07:13:04.597Z,7.65
2022-12-26T07:15:31.816Z,7.70
2022-12-26T07:17:58.974Z,7.61
2022-12-26T07:20:26.071Z,7.75
2022-12-26T07:22:55.233Z,7.75
2022-12-26T07:25:22.387Z,7.72
2022-12-26T07:27:53.478Z,7.56
2022-12-26T07:30:20.932Z,7.66
2022-12-26T07:32:47.969Z,7.67
2022-12-26T07:35:15.214Z,7.67
2022-12-26T07:37:42.292Z,7.68
2022-12-26T07:40:09.929Z,7.68
2022-12-26T07:42:37.824Z,7.72
2022-12-26T07:45:05.259Z,7.68
2022-12-26T07:47:32.279Z,7.70
2022-12-26T07:49:59.357Z,7.64
2022-12-26T07:52:26.954Z,7.67
2022-12-26T07:54:54.035Z,7.71
2022-12-26T07:57:50.245Z,7.70
2022-12-26T08:00:08.935Z,7.66
2022-12-26T08:02:36.765Z,7.74
2022-12-26T08:05:04.156Z,7.82
2022-12-26T08:07:31.256Z,7.72
2022-12-26T08:09:58.305Z,7.81
2022-12-26T08:12:26.790Z,7.92
2022-12-26T08:14:53.961Z,7.93
2022-12-26T08:17:21.286Z,7.89
2022-12-26T08:19:48.429Z,8.00
2022-12-26T08:22:15.751Z,7.92
2022-12-26T08:24:42.982Z,8.02
2022-12-26T08:27:10.908Z,8.02
2022-12-26T08:29:38.018Z,7.96
2022-12-26T08:32:07.110Z,7.95
2022-12-26T08:34:36.432Z,8.01
2022-12-26T08:37:03.653Z,8.08
2022-12-26T08:39:30.828Z,8.08
2022-12-26T08:41:57.854Z,8.15
2022-12-26T08:44:27.489Z,8.17
2022-12-26T08:46:55.237Z,8.22
2022-12-26T08:49:22.352Z,8.28
2022-12-26T08:51:49.517Z,8.37
2022-12-26T08:54:16.617Z,8.43
2022-12-26T08:56:43.894Z,8.54
2022-12-26T08:59:11.119Z,8.55
2022-12-26T09:01:38.923Z,8.50
2022-12-26T09:04:07.567Z,8.48
2022-12-26T09:06:37.538Z,8.51
2022-12-26T09:09:08.407Z,8.58
2022-12-26T09:11:38.692Z,8.55
2022-12-26T09:14:07.985Z,8.49
2022-12-26T09:16:49.562Z,8.55
2022-12-26T09:19:18.646Z,8.48
2022-12-26T09:21:46.464Z,8.39
2022-12-26T09:24:16.571Z,8.38
2022-12-26T09:26:44.437Z,8.39
2022-12-26T09:29:12.725Z,8.37
2022-12-26T09:31:42.315Z,8.41
2022-12-26T09:34:09.419Z,8.41
2022-12-26T09:36:38.887Z,8.37
2022-12-26T09:39:08.343Z,8.33
2022-12-26T09:41:44.504Z,8.35
2022-12-26T09:44:14.213Z,8.36
2022-12-26T09:47:02.924Z,8.30
2022-12-26T09:49:37.822Z,8.21
2022-12-26T09:52:38.400Z,8.18
2022-12-26T09:55:24.044Z,7.95
2022-12-26T09:57:54.759Z,7.68
2022-12-26T10:00:28.312Z,7.40
2022-12-26T10:02:58.894Z,7.23
2022-12-26T10:05:38.486Z,7.10
2022-12-26T10:08:33.735Z,7.01
2022-12-26T10:11:07.641Z,6.88
2022-12-26T10:13:40.074Z,6.89
2022-12-26T10:16:18.658Z,6.80
2022-12-26T10:19:07.490Z,6.82
2022-12-26T10:21:52.530Z,6.77
2022-12-26T10:24:25.469Z,6.70
2022-12-26T10:27:14.597Z,6.63
2022-12-26T10:29:53.152Z,6.52
2022-12-26T10:32:43.641Z,6.50
2022-12-26T10:35:28.598Z,6.62
2022-12-26T10:37:59.893Z,6.49
2022-12-26T10:40:38.224Z,6.47
2022-12-26T10:43:26.421Z,6.46
2022-12-26T10:46:24.348Z,6.52
2022-12-26T10:48:51.555Z,6.41
2022-12-26T10:51:19.771Z,6.44
2022-12-26T10:53:51.387Z,6.44
2022-12-26T10:56:19.895Z,6.47
2022-12-26T10:58:58.528Z,6.57
2022-12-26T11:01:28.555Z,6.62
2022-12-26T11:04:00.942Z,6.70
2022-12-26T11:06:32.831Z,6.64
2022-12-26T11:09:00.431Z,6.55
2022-12-26T11:11:48.640Z,6.49
2022-12-26T11:14:38.222Z,6.50
2022-12-26T11:17:09.133Z,6.50
2022-12-26T11:19:42.158Z,6.43
2022-12-26T11:22:25.817Z,6.51
2022-12-26T11:25:08.208Z,6.43
2022-12-26T11:27:42.317Z,6.34
2022-12-26T11:30:19.720Z,6.51
2022-12-26T11:32:51.439Z,6.42
2022-12-26T11:35:18.643Z,6.40
2022-12-26T11:37:48.747Z,6.34
2022-12-26T11:40:24.924Z,6.39
2022-12-26T11:42:56.853Z,6.46
2022-12-26T11:45:27.347Z,6.55
2022-12-26T11:48:00.875Z,6.58
2022-12-26T11:50:30.822Z,6.63
2022-12-26T11:52:57.868Z,6.70
2022-12-26T11:55:39.237Z,6.79
2022-12-26T11:58:09.405Z,6.79
2022-12-26T12:00:42.252Z,6.85
2022-12-26T12:03:19.787Z,6.89
2022-12-26T12:06:00.507Z,6.90
2022-12-26T12:08:49.359Z,6.81
2022-12-26T12:11:27.568Z,6.82
2022-12-26T12:14:27.691Z,6.80
2022-12-26T12:17:07.036Z,6.78
2022-12-26T12:19:38.016Z,6.73
2022-12-26T12:22:19.747Z,6.65
2022-12-26T12:25:01.665Z,6.61
2022-12-26T12:27:43.435Z,6.43
2022-12-26T12:30:34.212Z,6.40
2022-12-26T12:33:32.423Z,6.26
2022-12-26T12:36:10.892Z,6.23
2022-12-26T12:39:02.448Z,6.17
2022-12-26T12:42:05.066Z,6.34
2022-12-26T12:45:08.860Z,6.49
2022-12-26T12:48:17.544Z,6.49
2022-12-26T12:50:56.768Z,6.52
2022-12-26T12:53:29.682Z,6.55
2022-12-26T12:56:34.699Z,6.57
2022-12-26T12:59:25.870Z,6.43
2022-12-26T13:02:07.035Z,6.38
2022-12-26T13:04:45.907Z,6.33
2022-12-26T13:07:23.384Z,6.37
2022-12-26T13:09:57.055Z,6.45
2022-12-26T13:12:35.019Z,6.27
2022-12-26T13:15:14.072Z,6.18
2022-12-26T13:17:51.901Z,6.04
2022-12-26T13:20:27.596Z,5.92
2022-12-26T13:23:24.664Z,5.93
2022-12-26T13:26:07.792Z,5.89
2022-12-26T13:28:45.848Z,5.79
2022-12-26T13:31:14.000Z,5.84
2022-12-26T13:33:43.191Z,5.86
2022-12-26T13:36:11.089Z,5.88
2022-12-26T13:38:56.259Z,5.91
2022-12-26T13:41:44.646Z,5.85
2022-12-26T13:44:20.620Z,5.94
2022-12-26T13:46:47.616Z,5.89
2022-12-26T13:49:29.559Z,5.90
2022-12-26T13:52:12.281Z,5.98
2022-12-26T13:55:08.273Z,5.89
2022-12-26T13:57:44.156Z,5.92
2022-12-26T14:00:23.504Z,5.91
2022-12-26T14:03:16.622Z,5.88
2022-12-26T14:06:15.210Z,5.89
2022-12-26T14:09:21.465Z,5.99
2022-12-26T14:11:59.690Z,5.95
2022-12-26T14:15:23.414Z,5.94
2022-12-26T14:18:15.229Z,5.91
2022-12-26T14:21:39.873Z,5.84
2022-12-26T14:24:12.778Z,5.93
2022-12-26T14:26:48.519Z,5.97
2022-12-26T14:29:25.340Z,5.98
2022-12-26T14:32:16.956Z,5.97
2022-12-26T14:35:04.851Z,6.10
2022-12-26T14:37:44.635Z,6.08
2022-12-26T14:40:36.540Z,6.05
2022-12-26T14:43:23.544Z,6.04
2022-12-26T14:45:53.227Z,5.99
2022-12-26T14:48:23.315Z,5.90
2022-12-26T14:50:50.473Z,5.88
2022-12-26T14:53:17.518Z,5.86
2022-12-26T14:55:47.593Z,5.81
2022-12-26T14:58:39.460Z,5.73
2022-12-26T15:01:09.453Z,5.70
2022-12-26T15:03:45.019Z,5.59
2022-12-26T15:06:20.990Z,5.58
2022-12-26T15:08:53.836Z,5.54
2022-12-26T15:11:50.753Z,5.52
2022-12-26T15:14:51.916Z,5.35
2022-12-26T15:17:37.740Z,5.28
2022-12-26T15:20:23.537Z,5.21
2022-12-26T15:23:18.786Z,5.16
2022-12-26T15:26:00.667Z,5.05
2022-12-26T15:28:56.594Z,5.00
2022-12-26T15:31:42.098Z,4.94
2022-12-26T15:34:18.576Z,4.86
2022-12-26T15:36:53.892Z,4.78
2022-12-26T15:39:26.642Z,4.80
2022-12-26T15:42:22.835Z,4.78
2022-12-26T15:45:15.738Z,4.72
2022-12-26T15:47:54.813Z,4.66
2022-12-26T15:50:52.248Z,4.63
2022-12-26T15:53:43.889Z,4.58
2022-12-26T15:56:39.831Z,4.51
2022-12-26T15:59:44.468Z,4.52
2022-12-26T16:02:13.310Z,4.43
2022-12-26T16:04:52.135Z,4.38
2022-12-26T16:07:31.603Z,4.36
2022-12-26T16:09:59.008Z,4.35
2022-12-26T16:12:30.646Z,4.23
2022-12-26T16:15:09.584Z,4.25
2022-12-26T16:17:38.819Z,4.20
2022-12-26T16:20:48.027Z,4.17
2022-12-26T16:23:18.816Z,3.98
2022-12-26T16:26:04.182Z,4.00
2022-12-26T16:28:36.784Z,3.90
2022-12-26T16:31:04.830Z,4.00
2022-12-26T16:33:39.917Z,3.87
2022-12-26T16:36:09.221Z,3.91
2022-12-26T16:38:38.158Z,3.95
2022-12-26T16:41:25.500Z,3.90
2022-12-26T16:43:54.780Z,3.91
2022-12-26T16:46:26.346Z,3.89
2022-12-26T16:48:57.699Z,3.86
2022-12-26T16:51:46.010Z,3.80
2022-12-26T16:54:27.621Z,3.78
2022-12-26T16:57:19.645Z,3.67
2022-12-26T16:59:49.374Z,3.67
2022-12-26T17:02:30.902Z,3.61
2022-12-26T17:05:38.124Z,3.54
2022-12-26T17:08:05.532Z,3.45
2022-12-26T17:10:37.873Z,3.47
2022-12-26T17:13:08.021Z,3.45
2022-12-26T17:15:39.758Z,3.42
2022-12-26T17:18:37.957Z,3.37
2022-12-26T17:21:20.165Z,3.33
2022-12-26T17:24:04.182Z,3.29
2022-12-26T17:26:31.388Z,3.34
2022-12-26T17:28:58.352Z,3.21
2022-12-26T17:31:44.124Z,3.21
2022-12-26T17:34:26.512Z,3.19
2022-12-26T17:39:42.609Z,3.09
2022-12-26T17:42:12.727Z,3.09
2022-12-26T17:44:43.742Z,3.01
2022-12-26T17:47:24.200Z,3.03
2022-12-26T17:49:52.860Z,3.03
2022-12-26T17:52:23.636Z,2.96
2022-12-26T17:54:52.065Z,2.98
2022-12-26T17:57:24.320Z,2.93
2022-12-26T17:59:53.017Z,2.78
2022-12-26T18:02:20.663Z,2.84
2022-12-26T18:04:48.991Z,2.76
2022-12-26T18:07:31.062Z,2.84
2022-12-26T18:10:00.246Z,2.84
2022-12-26T18:12:28.043Z,2.86
2022-12-26T18:15:01.363Z,2.85
2022-12-26T18:17:33.211Z,2.99
2022-12-26T18:20:01.727Z,3.03
2022-12-26T18:22:28.832Z,3.11
2022-12-26T18:24:55.913Z,3.15
2022-12-26T18:27:33.410Z,3.13
2022-12-26T18:30:00.793Z,3.14
2022-12-26T18:32:32.982Z,3.12
2022-12-26T18:35:00.677Z,3.08
2022-12-26T18:37:30.423Z,3.04
2022-12-26T18:39:57.567Z,2.97
2022-12-26T18:42:26.245Z,3.01
2022-12-26T18:44:53.486Z,2.91
2022-12-26T18:47:22.090Z,2.95
2022-12-26T18:49:49.584Z,2.90
2022-12-26T18:52:17.415Z,2.90
2022-12-26T18:54:45.647Z,2.89
2022-12-26T18:57:19.555Z,2.89
2022-12-26T18:59:48.214Z,2.95
2022-12-26T19:02:20.598Z,2.88
2022-12-26T19:04:48.866Z,2.78
2022-12-26T19:07:17.821Z,2.77
2022-12-26T19:09:47.292Z,2.80
2022-12-26T19:12:14.793Z,2.82
2022-12-26T19:14:44.709Z,2.78
2022-12-26T19:17:12.357Z,2.75
2022-12-26T19:19:39.559Z,2.76
2022-12-26T19:22:10.095Z,2.80
2022-12-26T19:24:38.010Z,2.84
2022-12-26T19:27:05.139Z,2.85
2022-12-26T19:29:32.476Z,2.86
2022-12-26T19:31:59.638Z,2.86
2022-12-26T19:34:26.828Z,2.92
2022-12-26T19:36:53.883Z,2.96
2022-12-26T19:39:21.273Z,2.93
2022-12-26T19:41:48.409Z,2.89
2022-12-26T19:44:15.550Z,2.94
2022-12-26T19:46:42.707Z,2.96
2022-12-26T19:49:09.733Z,3.05
2022-12-26T19:51:42.614Z,3.05
2022-12-26T19:54:09.711Z,3.08
2022-12-26T19:56:39.842Z,3.11
2022-12-26T19:59:07.829Z,3.01
2022-12-26T20:01:34.985Z,3.12
2022-12-26T20:04:04.066Z,3.12
2022-12-26T20:06:33.823Z,3.13
2022-12-26T20:09:08.696Z,3.12
2022-12-26T20:11:42.300Z,3.16
2022-12-26T20:14:13.585Z,3.12
2022-12-26T20:19:28.296Z,2.97
2022-12-26T20:21:55.609Z,3.06
2022-12-26T20:24:23.041Z,3.04
2022-12-26T20:26:50.328Z,2.96
2022-12-26T20:29:17.995Z,2.99
2022-12-26T20:31:45.882Z,3.05
2022-12-26T20:34:13.190Z,3.05
2022-12-26T20:36:42.144Z,3.03
2022-12-26T20:39:19.731Z,3.05
2022-12-26T20:41:47.070Z,3.03
2022-12-26T20:44:15.623Z,3.20
2022-12-26T20:46:43.846Z,3.28
2022-12-26T20:49:11.259Z,3.30
2022-12-26T20:51:41.133Z,3.30
2022-12-26T20:54:10.133Z,3.28
2022-12-26T20:56:38.424Z,3.27
2022-12-26T20:59:07.727Z,3.33
2022-12-26T21:01:35.480Z,3.33
2022-12-26T21:04:03.841Z,3.37
2022-12-26T21:06:34.103Z,3.40
2022-12-26T21:09:01.510Z,3.34
2022-12-26T21:11:29.616Z,3.33
2022-12-26T21:13:59.604Z,3.29
2022-12-26T21:16:39.353Z,3.28
2022-12-26T21:19:14.667Z,3.27
2022-12-26T21:21:45.532Z,3.25
2022-12-26T21:24:22.082Z,3.21
2022-12-26T21:26:49.906Z,3.13
2022-12-26T21:29:20.266Z,3.16
2022-12-26T21:31:48.379Z,3.11
2022-12-26T21:34:17.586Z,3.11
2022-12-26T21:37:03.577Z,3.06
2022-12-26T21:39:31.422Z,3.09
2022-12-26T21:41:58.952Z,3.08
2022-12-26T21:44:25.977Z,3.11
2022-12-26T21:46:53.212Z,3.12
2022-12-26T21:49:20.327Z,3.10
2022-12-26T21:51:47.372Z,3.01
2022-12-26T21:54:32.713Z,3.09
2022-12-26T21:56:59.754Z,2.99
2022-12-26T21:59:45.717Z,3.06
2022-12-26T22:02:33.029Z,3.07
2022-12-26T22:05:01.439Z,3.01
2022-12-26T22:07:28.867Z,3.01
2022-12-26T22:09:55.977Z,2.99
2022-12-26T22:12:42.334Z,2.99
2022-12-26T22:15:30.148Z,3.02
2022-12-26T22:17:57.565Z,3.03
2022-12-26T22:20:24.664Z,3.01
2022-12-26T22:22:51.998Z,2.96
2022-12-26T22:25:19.860Z,2.92
2022-12-26T22:27:46.944Z,3.00
2022-12-26T22:30:14.151Z,2.90
2022-12-26T22:32:41.336Z,2.97
2022-12-26T22:35:13.237Z,2.95
2022-12-26T22:37:43.612Z,2.82
2022-12-26T22:40:11.492Z,2.89
2022-12-26T22:42:38.660Z,2.93
2022-12-26T22:45:08.462Z,2.96
2022-12-26T22:47:35.568Z,2.87
2022-12-26T22:50:03.959Z,2.88
2022-12-26T22:52:30.988Z,2.78
2022-12-26T22:54:58.131Z,2.77
2022-12-26T22:57:25.259Z,2.76
2022-12-26T23:00:09.639Z,2.70
2022-12-26T23:02:38.180Z,2.76
2022-12-26T23:05:06.641Z,2.77
2022-12-26T23:07:33.969Z,2.79
2022-12-26T23:10:01.166Z,2.76
2022-12-26T23:12:43.753Z,2.75
2022-12-26T23:15:16.695Z,2.70
2022-12-26T23:18:24.384Z,2.67
2022-12-26T23:21:11.949Z,2.67
2022-12-26T23:23:39.453Z,2.56
2022-12-26T23:26:09.354Z,2.56
2022-12-26T23:29:12.033Z,2.54
2022-12-26T23:31:39.134Z,2.46
2022-12-26T23:34:06.840Z,2.47
2022-12-26T23:36:33.938Z,2.49
2022-12-26T23:39:01.089Z,2.50
2022-12-26T23:41:28.168Z,2.56
2022-12-26T23:43:55.261Z,2.53
2022-12-26T23:46:22.374Z,2.60
2022-12-26T23:48:49.527Z,2.56
2022-12-26T23:51:19.927Z,2.55
2022-12-26T23:53:46.940Z,2.59
2022-12-26T23:56:14.196Z,2.61
2022-12-26T23:58:42.241Z,2.52
